createdAt,value
2022-08-23T00:02:00.416Z,100095.25
2022-08-23T00:04:35.321Z,100098.97
2022-08-23T00:07:02.996Z,100097.38
2022-08-23T00:09:29.498Z,100088.94
2022-08-23T00:12:10.119Z,100091.72
2022-08-23T00:14:39.786Z,100091.47
2022-08-23T00:17:09.913Z,100086.28
2022-08-23T00:19:37.138Z,100090.59
2022-08-23T00:22:04.328Z,100094.13
2022-08-23T00:24:31.072Z,100088.69
2022-08-23T00:27:04.926Z,100094.38
2022-08-23T00:29:40.862Z,100083.72
2022-08-23T00:32:10.844Z,100084.50
2022-08-23T00:34:38.221Z,100078.75
2022-08-23T00:37:04.965Z,100070.81
2022-08-23T00:39:32.044Z,100072.06
2022-08-23T00:42:23.985Z,100062.75
2022-08-23T00:45:10.241Z,100074.34
2022-08-23T00:47:39.757Z,100054.59
2022-08-23T00:50:26.464Z,100073.88
2022-08-23T00:53:14.633Z,100074.59
2022-08-23T00:55:44.720Z,100075.13
2022-08-23T00:58:13.623Z,100075.31
2022-08-23T01:00:40.482Z,100095.63
2022-08-23T01:03:09.198Z,100080.72
2022-08-23T01:05:47.552Z,100085.31
2022-08-23T01:08:14.220Z,100088.91
2022-08-23T01:10:49.724Z,100087.91
2022-08-23T01:13:30.028Z,100093.94
2022-08-23T01:16:06.546Z,100089.06
2022-08-23T01:18:34.138Z,100080.28
2022-08-23T01:21:13.201Z,100089.41
2022-08-23T01:23:43.616Z,100082.28
2022-08-23T01:26:11.370Z,100089.25
2022-08-23T01:28:40.862Z,100085.44
2022-08-23T01:31:14.016Z,100087.63
2022-08-23T01:33:41.949Z,100095.06
2022-08-23T01:36:11.684Z,100096.19
2022-08-23T01:38:38.196Z,100089.59
2022-08-23T01:41:06.520Z,100089.75
2022-08-23T01:43:33.690Z,100095.66
2022-08-23T01:46:09.179Z,100096.66
2022-08-23T01:48:35.981Z,100090.09
2022-08-23T01:51:02.912Z,100087.81
2022-08-23T01:53:29.381Z,100077.91
2022-08-23T01:55:55.828Z,100093.06
2022-08-23T01:58:22.599Z,100095.38
2022-08-23T02:00:49.077Z,100103.41
2022-08-23T02:03:15.826Z,100098.00
2022-08-23T02:05:42.884Z,100103.66
2022-08-23T02:08:28.547Z,100103.22
2022-08-23T02:10:55.042Z,100100.78
2022-08-23T02:13:22.214Z,100104.19
2022-08-23T02:15:51.370Z,100096.94
2022-08-23T02:18:20.491Z,100110.38
2022-08-23T02:20:50.006Z,100110.53
2022-08-23T02:23:17.088Z,100083.59
2022-08-23T02:25:44.289Z,100124.09
2022-08-23T02:28:11.244Z,100116.94
2022-08-23T02:30:38.177Z,100111.44
2022-08-23T02:33:05.020Z,100111.00
2022-08-23T02:35:33.652Z,100108.44
2022-08-23T02:38:08.561Z,100112.09
2022-08-23T02:40:35.791Z,100114.00
2022-08-23T02:43:03.626Z,100109.19
2022-08-23T02:45:30.169Z,100125.16
2022-08-23T02:47:57.433Z,100125.88
2022-08-23T02:50:24.429Z,100123.88
2022-08-23T02:52:50.858Z,100114.16
2022-08-23T02:55:17.476Z,100121.41
2022-08-23T02:57:44.097Z,100131.63
2022-08-23T03:00:12.142Z,100129.44
2022-08-23T03:02:39.032Z,100132.13
2022-08-23T03:05:07.479Z,100127.19
2022-08-23T03:07:34.019Z,100117.19
2022-08-23T03:10:01.526Z,100143.88
2022-08-23T03:12:28.233Z,100128.13
2022-08-23T03:14:54.625Z,100132.91
2022-08-23T03:17:20.970Z,100131.25
2022-08-23T03:19:48.161Z,100122.59
2022-08-23T03:22:14.900Z,100124.69
2022-08-23T03:24:41.357Z,100127.63
2022-08-23T03:27:08.143Z,100123.53
2022-08-23T03:29:34.616Z,100122.69
2022-08-23T03:32:01.730Z,100123.53
2022-08-23T03:34:28.225Z,100125.41
2022-08-23T03:36:54.669Z,100125.97
2022-08-23T03:39:21.077Z,100137.41
2022-08-23T03:41:47.893Z,100131.88
2022-08-23T03:44:14.823Z,100131.38
2022-08-23T03:46:42.307Z,100144.31
2022-08-23T03:49:08.977Z,100137.03
2022-08-23T03:51:35.457Z,100143.84
2022-08-23T03:54:02.436Z,100144.06
2022-08-23T03:56:34.807Z,100147.84
2022-08-23T03:59:11.522Z,100152.16
2022-08-23T04:01:37.982Z,100150.53
2022-08-23T04:04:04.584Z,100156.19
2022-08-23T04:06:32.945Z,100158.28
2022-08-23T04:09:00.122Z,100152.16
2022-08-23T04:11:27.582Z,100149.47
2022-08-23T04:13:54.410Z,100164.84
2022-08-23T04:16:20.995Z,100170.25
2022-08-23T04:18:47.617Z,100175.28
2022-08-23T04:21:18.636Z,100168.25
2022-08-23T04:23:45.543Z,100176.84
2022-08-23T04:26:12.086Z,100191.81
2022-08-23T04:28:38.830Z,100180.91
2022-08-23T04:31:06.140Z,100190.88
2022-08-23T04:33:34.324Z,100182.22
2022-08-23T04:36:02.401Z,100186.53
2022-08-23T04:38:28.970Z,100190.66
2022-08-23T04:41:14.584Z,100181.50
2022-08-23T04:43:42.443Z,100186.53
2022-08-23T04:46:09.780Z,100195.84
2022-08-23T04:48:36.596Z,100197.94
2022-08-23T04:51:03.695Z,100209.56
2022-08-23T04:53:30.415Z,100214.50
2022-08-23T04:55:56.824Z,100173.28
2022-08-23T04:58:23.292Z,100210.94
2022-08-23T05:00:51.755Z,100213.66
2022-08-23T05:03:18.222Z,100216.13
2022-08-23T05:05:44.591Z,100215.88
2022-08-23T05:08:11.402Z,100219.19
2022-08-23T05:10:38.253Z,100227.28
2022-08-23T05:13:04.644Z,100220.00
2022-08-23T05:15:31.085Z,100226.47
2022-08-23T05:17:57.557Z,100222.94
2022-08-23T05:20:24.134Z,100230.19
2022-08-23T05:22:50.517Z,100239.38
2022-08-23T05:25:16.996Z,100235.81
2022-08-23T05:27:44.036Z,100242.28
2022-08-23T05:30:15.173Z,100245.81
2022-08-23T05:32:42.012Z,100231.59
2022-08-23T05:35:08.842Z,100248.63
2022-08-23T05:37:35.213Z,100246.53
2022-08-23T05:40:01.741Z,100252.53
2022-08-23T05:42:28.173Z,100256.28
2022-08-23T05:44:54.620Z,100248.19
2022-08-23T05:47:24.838Z,100263.69
2022-08-23T05:49:51.632Z,100259.91
2022-08-23T05:52:18.003Z,100257.81
2022-08-23T05:54:44.401Z,100264.03
2022-08-23T05:57:11.377Z,100267.91
2022-08-23T05:59:37.792Z,100268.28
2022-08-23T06:02:04.309Z,100267.00
2022-08-23T06:04:30.870Z,100268.16
2022-08-23T06:06:58.805Z,100270.22
2022-08-23T06:09:26.281Z,100276.66
2022-08-23T06:11:53.069Z,100276.69
2022-08-23T06:14:19.943Z,100281.25
2022-08-23T06:16:49.554Z,100286.41
2022-08-23T06:19:18.862Z,100268.69
2022-08-23T06:21:45.917Z,100289.47
2022-08-23T06:24:13.137Z,100288.44
2022-08-23T06:26:45.123Z,100288.78
2022-08-23T06:29:14.371Z,100282.91
2022-08-23T06:31:49.559Z,100296.53
2022-08-23T06:34:19.018Z,100281.47
2022-08-23T06:36:47.625Z,100288.31
2022-08-23T06:39:16.116Z,100289.81
2022-08-23T06:41:42.673Z,100273.00
2022-08-23T06:44:09.549Z,100292.25
2022-08-23T06:46:36.612Z,100278.84
2022-08-23T06:49:05.318Z,100292.00
2022-08-23T06:51:39.228Z,100287.06
2022-08-23T06:54:08.609Z,100294.78
2022-08-23T06:56:36.988Z,100289.59
2022-08-23T06:59:06.220Z,100272.22
2022-08-23T07:01:46.976Z,100302.47
2022-08-23T07:04:16.513Z,100310.53
2022-08-23T07:06:43.076Z,100305.53
2022-08-23T07:09:09.501Z,100313.28
2022-08-23T07:11:36.229Z,100306.63
2022-08-23T07:14:05.361Z,100306.06
2022-08-23T07:16:40.735Z,100311.13
2022-08-23T07:19:07.474Z,100318.59
2022-08-23T07:21:33.925Z,100320.66
2022-08-23T07:24:00.353Z,100320.47
2022-08-23T07:26:27.473Z,100330.88
2022-08-23T07:28:57.015Z,100323.50
2022-08-23T07:31:30.781Z,100329.41
2022-08-23T07:34:02.177Z,100329.53
2022-08-23T07:36:30.705Z,100320.47
2022-08-23T07:38:57.725Z,100335.28
2022-08-23T07:41:31.134Z,100327.38
2022-08-23T07:44:02.218Z,100337.16
2022-08-23T07:46:31.287Z,100335.13
2022-08-23T07:48:59.575Z,100343.66
2022-08-23T07:51:28.037Z,100340.28
2022-08-23T07:53:54.590Z,100335.28
2022-08-23T07:56:21.890Z,100334.25
2022-08-23T07:58:48.286Z,100338.19
2022-08-23T08:01:18.453Z,100339.38
2022-08-23T08:03:46.904Z,100343.84
2022-08-23T08:06:18.784Z,100335.47
2022-08-23T08:08:45.877Z,100358.16
2022-08-23T08:11:16.405Z,100349.00
2022-08-23T08:13:44.757Z,100339.53
2022-08-23T08:16:22.710Z,100345.31
2022-08-23T08:18:49.500Z,100344.59
2022-08-23T08:21:17.860Z,100346.03
2022-08-23T08:23:44.653Z,100342.22
2022-08-23T08:26:12.233Z,100325.06
2022-08-23T08:28:40.661Z,100344.22
2022-08-23T08:31:08.053Z,100341.81
2022-08-23T08:33:35.317Z,100336.41
2022-08-23T08:36:02.063Z,100341.63
2022-08-23T08:38:30.582Z,100322.28
2022-08-23T08:41:18.146Z,100338.22
2022-08-23T08:44:13.607Z,100345.31
2022-08-23T08:46:45.877Z,100358.69
2022-08-23T08:49:42.797Z,100351.06
2022-08-23T08:52:15.296Z,100348.09
2022-08-23T08:54:48.005Z,100329.50
2022-08-23T08:57:25.274Z,100333.84
2022-08-23T09:00:04.841Z,100336.78
2022-08-23T09:02:34.972Z,100356.28
2022-08-23T09:05:06.842Z,100343.38
2022-08-23T09:07:51.814Z,100351.38
2022-08-23T09:10:58.206Z,100359.31
2022-08-23T09:13:46.155Z,100356.66
2022-08-23T09:17:00.231Z,100353.59
2022-08-23T09:19:26.814Z,100354.84
2022-08-23T09:22:00.645Z,100356.97
2022-08-23T09:24:27.561Z,100357.19
2022-08-23T09:26:54.254Z,100356.72
2022-08-23T09:29:29.320Z,100362.16
2022-08-23T09:32:02.031Z,100363.38
2022-08-23T09:34:37.066Z,100356.16
2022-08-23T09:37:13.657Z,100361.91
2022-08-23T09:40:20.629Z,100361.34
2022-08-23T09:43:04.234Z,100356.84
2022-08-23T09:45:39.662Z,100358.00
2022-08-23T09:48:11.754Z,100359.81
2022-08-23T09:50:45.444Z,100357.97
2022-08-23T09:53:14.545Z,100360.59
2022-08-23T09:55:54.504Z,100349.28
2022-08-23T09:58:40.373Z,100348.88
2022-08-23T10:01:18.204Z,100350.16
2022-08-23T10:03:46.218Z,100351.28
2022-08-23T10:06:31.362Z,100355.69
2022-08-23T10:09:02.106Z,100365.00
2022-08-23T10:11:31.845Z,100355.25
2022-08-23T10:13:58.242Z,100354.75
2022-08-23T10:16:34.318Z,100356.03
2022-08-23T10:19:10.466Z,100362.44
2022-08-23T10:22:23.116Z,100357.00
2022-08-23T10:25:02.449Z,100363.09
2022-08-23T10:28:18.837Z,100358.16
2022-08-23T10:30:45.299Z,100357.72
2022-08-23T10:33:29.676Z,100358.75
2022-08-23T10:36:15.766Z,100354.75
2022-08-23T10:38:45.102Z,100358.84
2022-08-23T10:41:33.333Z,100355.03
2022-08-23T10:44:09.011Z,100349.56
2022-08-23T10:46:42.684Z,100353.56
2022-08-23T10:49:13.223Z,100352.78
2022-08-23T10:51:44.694Z,100352.59
2022-08-23T10:54:18.613Z,100345.25
2022-08-23T10:56:48.863Z,100344.16
2022-08-23T10:59:23.880Z,100347.28
2022-08-23T11:02:03.024Z,100341.63
2022-08-23T11:05:00.896Z,100347.03
2022-08-23T11:07:28.952Z,100341.38
2022-08-23T11:10:39.422Z,100337.19
2022-08-23T11:13:25.499Z,100319.88
2022-08-23T11:16:01.297Z,100338.78
2022-08-23T11:18:33.646Z,100335.28
2022-08-23T11:21:02.245Z,100330.34
2022-08-23T11:23:31.380Z,100332.09
2022-08-23T11:25:57.713Z,100337.94
2022-08-23T11:28:24.031Z,100334.88
2022-08-23T11:31:17.136Z,100336.47
2022-08-23T11:34:08.548Z,100333.09
2022-08-23T11:36:36.094Z,100317.88
2022-08-23T11:39:09.965Z,100336.25
2022-08-23T11:41:54.316Z,100335.03
2022-08-23T11:44:35.269Z,100330.09
2022-08-23T11:47:06.757Z,100323.56
2022-08-23T11:49:44.009Z,100320.59
2022-08-23T11:52:35.199Z,100325.53
2022-08-23T11:55:17.361Z,100319.66
2022-08-23T11:58:02.334Z,100317.78
2022-08-23T12:00:53.768Z,100312.47
2022-08-23T12:03:33.904Z,100310.25
2022-08-23T12:06:34.513Z,100309.69
2022-08-23T12:09:13.402Z,100318.84
2022-08-23T12:11:54.690Z,100313.81
2022-08-23T12:14:42.793Z,100308.19
2022-08-23T12:17:12.199Z,100300.44
2022-08-23T12:20:05.367Z,100296.41
2022-08-23T12:23:04.094Z,100288.69
2022-08-23T12:25:31.924Z,100293.03
2022-08-23T12:28:29.830Z,100284.81
2022-08-23T12:31:20.044Z,100281.84
2022-08-23T12:34:09.652Z,100280.53
2022-08-23T12:37:05.462Z,100286.09
2022-08-23T12:39:40.091Z,100275.25
2022-08-23T12:42:15.579Z,100276.00
2022-08-23T12:44:45.074Z,100286.25
2022-08-23T12:47:20.884Z,100284.06
2022-08-23T12:49:58.469Z,100282.94
2022-08-23T12:52:28.166Z,100285.66
2022-08-23T12:54:57.734Z,100287.06
2022-08-23T12:57:39.430Z,100278.03
2022-08-23T13:00:21.601Z,100273.31
2022-08-23T13:03:15.828Z,100281.19
2022-08-23T13:06:02.089Z,100281.47
2022-08-23T13:08:42.693Z,100277.50
2022-08-23T13:11:12.900Z,100279.69
2022-08-23T13:13:44.025Z,100286.63
2022-08-23T13:16:29.907Z,100276.69
2022-08-23T13:19:14.667Z,100275.75
2022-08-23T13:21:41.092Z,100279.84
2022-08-23T13:24:31.410Z,100271.06
2022-08-23T13:27:21.342Z,100279.53
2022-08-23T13:30:08.546Z,100276.34
2022-08-23T13:32:37.085Z,100277.75
2022-08-23T13:35:23.826Z,100274.84
2022-08-23T13:37:52.304Z,100277.53
2022-08-23T13:40:25.682Z,100278.50
2022-08-23T13:42:58.357Z,100270.38
2022-08-23T13:45:27.044Z,100268.88
2022-08-23T13:48:28.757Z,100264.25
2022-08-23T13:51:18.137Z,100259.63
2022-08-23T13:53:44.676Z,100266.81
2022-08-23T13:56:11.196Z,100269.41
2022-08-23T13:58:37.896Z,100268.28
2022-08-23T14:01:13.713Z,100256.50
2022-08-23T14:03:40.101Z,100265.63
2022-08-23T14:06:06.746Z,100267.47
2022-08-23T14:08:33.198Z,100259.97
2022-08-23T14:10:59.751Z,100269.53
2022-08-23T14:13:29.519Z,100264.75
2022-08-23T14:21:34.972Z,100256.44
2022-08-23T14:24:01.355Z,100252.66
2022-08-23T14:26:28.039Z,100256.44
2022-08-23T14:28:54.506Z,100259.88
2022-08-23T14:31:21.042Z,100262.53
2022-08-23T14:33:48.309Z,100259.63
2022-08-23T14:36:15.619Z,100253.06
2022-08-23T14:38:42.061Z,100242.13
2022-08-23T14:41:16.157Z,100257.41
2022-08-23T14:43:42.513Z,100251.91
2022-08-23T14:46:09.175Z,100251.41
2022-08-23T14:48:36.915Z,100258.69
2022-08-23T14:51:04.309Z,100259.75
2022-08-23T14:53:33.870Z,100257.09
2022-08-23T14:56:18.806Z,100252.34
2022-08-23T14:58:47.016Z,100259.75
2022-08-23T15:01:13.966Z,100250.53
2022-08-23T15:03:41.822Z,100250.25
2022-08-23T15:06:09.816Z,100238.19
2022-08-23T15:08:36.711Z,100251.75
2022-08-23T15:13:55.555Z,100251.47
2022-08-23T15:16:23.275Z,100260.31
2022-08-23T15:18:51.973Z,100248.81
2022-08-23T15:21:19.808Z,100250.75
2022-08-23T15:23:46.692Z,100248.00
2022-08-23T15:26:16.511Z,100232.88
2022-08-23T15:28:43.174Z,100249.94
2022-08-23T15:31:12.056Z,100239.13
2022-08-23T15:33:39.907Z,100245.16
2022-08-23T15:36:08.596Z,100247.72
2022-08-23T15:38:37.238Z,100227.63
2022-08-23T15:41:04.589Z,100232.38
2022-08-23T15:43:34.275Z,100238.22
2022-08-23T15:46:10.351Z,100234.47
2022-08-23T15:48:43.744Z,100241.31
2022-08-23T15:51:10.867Z,100244.75
2022-08-23T15:53:40.192Z,100239.41
2022-08-23T15:56:15.410Z,100237.97
2022-08-23T15:58:42.657Z,100234.13
2022-08-23T16:01:10.635Z,100230.84
2022-08-23T16:03:38.519Z,100227.78
2022-08-23T16:06:06.329Z,100232.31
2022-08-23T16:08:36.557Z,100232.00
2022-08-23T16:11:05.223Z,100234.78
2022-08-23T16:13:31.650Z,100228.97
2022-08-23T16:15:58.215Z,100233.84
2022-08-23T16:18:24.616Z,100229.59
2022-08-23T16:20:54.202Z,100229.44
2022-08-23T16:23:20.983Z,100230.72
2022-08-23T16:25:47.345Z,100226.50
2022-08-23T16:28:13.826Z,100229.75
2022-08-23T16:30:40.278Z,100210.13
2022-08-23T16:33:06.703Z,100233.63
2022-08-23T16:35:33.129Z,100233.00
2022-08-23T16:37:59.591Z,100236.88
2022-08-23T16:40:26.037Z,100237.88
2022-08-23T16:42:52.866Z,100237.19
2022-08-23T16:45:25.803Z,100232.66
2022-08-23T16:47:53.387Z,100236.53
2022-08-23T16:50:19.876Z,100234.38
2022-08-23T16:52:46.437Z,100247.19
2022-08-23T16:55:12.971Z,100229.16
2022-08-23T16:57:40.210Z,100230.63
2022-08-23T17:00:10.422Z,100234.03
2022-08-23T17:02:38.178Z,100236.13
2022-08-23T17:05:07.482Z,100242.09
2022-08-23T17:07:34.457Z,100246.94
2022-08-23T17:10:00.934Z,100242.69
2022-08-23T17:12:27.665Z,100250.16
2022-08-23T17:14:57.058Z,100246.00
2022-08-23T17:17:24.325Z,100242.75
2022-08-23T17:19:50.721Z,100234.22
2022-08-23T17:22:17.137Z,100247.66
2022-08-23T17:24:43.505Z,100247.78
2022-08-23T17:27:09.909Z,100250.16
2022-08-23T17:29:45.540Z,100258.56
2022-08-23T17:32:13.056Z,100258.69
2022-08-23T17:34:39.571Z,100270.50
2022-08-23T17:37:15.656Z,100264.50
2022-08-23T17:39:42.078Z,100266.66
2022-08-23T17:42:08.661Z,100268.53
2022-08-23T17:44:35.409Z,100271.09
2022-08-23T17:47:05.894Z,100267.13
2022-08-23T17:49:33.911Z,100270.66
2022-08-23T17:52:00.276Z,100268.44
2022-08-23T17:54:26.606Z,100275.75
2022-08-23T17:56:53.197Z,100276.28
2022-08-23T17:59:20.621Z,100262.38
2022-08-23T18:01:47.056Z,100268.88
2022-08-23T18:04:13.485Z,100276.31
2022-08-23T18:06:40.532Z,100277.63
2022-08-23T18:09:07.739Z,100278.34
2022-08-23T18:11:35.113Z,100285.66
2022-08-23T18:14:02.076Z,100291.00
2022-08-23T18:16:34.387Z,100286.09
2022-08-23T18:19:03.828Z,100295.44
2022-08-23T18:21:30.856Z,100304.38
2022-08-23T18:23:57.884Z,100301.53
2022-08-23T18:26:43.584Z,100306.75
2022-08-23T18:29:12.159Z,100297.91
2022-08-23T18:31:41.810Z,100309.53
2022-08-23T18:34:09.069Z,100309.44
2022-08-23T18:36:36.148Z,100311.53
2022-08-23T18:39:04.647Z,100314.66
2022-08-23T18:41:31.054Z,100320.50
2022-08-23T18:43:59.132Z,100319.25
2022-08-23T18:46:29.351Z,100316.41
2022-08-23T18:48:59.637Z,100330.00
2022-08-23T18:51:26.700Z,100312.16
2022-08-23T18:53:53.129Z,100328.59
2022-08-23T18:56:19.546Z,100330.63
2022-08-23T18:58:46.052Z,100319.84
2022-08-23T19:01:31.743Z,100348.31
2022-08-23T19:04:00.764Z,100343.69
2022-08-23T19:06:28.315Z,100346.75
2022-08-23T19:08:54.971Z,100346.00
2022-08-23T19:11:23.110Z,100349.59
2022-08-23T19:13:50.892Z,100351.59
2022-08-23T19:16:19.530Z,100359.25
2022-08-23T19:18:49.963Z,100353.88
2022-08-23T19:21:20.652Z,100359.91
2022-08-23T19:23:49.477Z,100345.84
2022-08-23T19:26:20.146Z,100354.06
2022-08-23T19:28:47.447Z,100366.66
2022-08-23T19:31:14.237Z,100356.34
2022-08-23T19:33:41.310Z,100362.09
2022-08-23T19:36:19.003Z,100364.03
2022-08-23T19:38:56.678Z,100353.44
2022-08-23T19:41:23.032Z,100364.41
2022-08-23T19:43:49.481Z,100359.00
2022-08-23T19:46:16.496Z,100362.56
2022-08-23T19:48:45.690Z,100369.69
2022-08-23T19:51:17.490Z,100370.00
2022-08-23T19:54:03.741Z,100359.66
2022-08-23T19:56:41.218Z,100370.31
2022-08-23T19:59:30.114Z,100363.75
2022-08-23T20:01:58.632Z,100374.97
2022-08-23T20:04:28.149Z,100375.50
2022-08-23T20:06:55.308Z,100376.88
2022-08-23T20:09:22.526Z,100371.44
2022-08-23T20:11:49.752Z,100379.34
2022-08-23T20:14:16.153Z,100387.00
2022-08-23T20:16:42.676Z,100385.09
2022-08-23T20:19:10.354Z,100386.19
2022-08-23T20:21:38.015Z,100371.47
2022-08-23T20:24:05.651Z,100376.41
2022-08-23T20:26:38.977Z,100385.69
2022-08-23T20:29:05.544Z,100397.44
2022-08-23T20:31:35.870Z,100394.16
2022-08-23T20:34:06.793Z,100392.53
2022-08-23T20:36:33.343Z,100392.81
2022-08-23T20:39:01.329Z,100386.81
2022-08-23T20:41:29.644Z,100387.63
2022-08-23T20:43:57.054Z,100378.38
2022-08-23T20:46:23.741Z,100372.09
2022-08-23T20:48:51.526Z,100394.72
2022-08-23T20:51:18.853Z,100386.53
2022-08-23T20:53:46.292Z,100402.91
2022-08-23T20:56:12.744Z,100390.63
2022-08-23T20:58:39.241Z,100393.88
2022-08-23T21:01:06.245Z,100383.50
2022-08-23T21:03:38.370Z,100397.16
2022-08-23T21:06:21.762Z,100385.97
2022-08-23T21:08:50.532Z,100396.31
2022-08-23T21:11:21.757Z,100400.66
2022-08-23T21:13:48.424Z,100402.59
2022-08-23T21:16:16.633Z,100396.03
2022-08-23T21:18:44.049Z,100401.22
2022-08-23T21:21:11.167Z,100394.91
2022-08-23T21:23:37.924Z,100396.28
2022-08-23T21:26:05.911Z,100407.72
2022-08-23T21:28:32.942Z,100409.59
2022-08-23T21:31:11.846Z,100396.22
2022-08-23T21:33:40.327Z,100404.13
2022-08-23T21:36:07.932Z,100411.75
2022-08-23T21:38:34.577Z,100393.13
2022-08-23T21:41:04.572Z,100384.94
2022-08-23T21:43:32.608Z,100408.09
2022-08-23T21:45:59.134Z,100401.28
2022-08-23T21:48:25.686Z,100403.44
2022-08-23T21:50:52.372Z,100403.16
2022-08-23T21:53:19.873Z,100405.34
2022-08-23T21:55:46.441Z,100403.94
2022-08-23T21:58:13.876Z,100399.56
2022-08-23T22:00:41.259Z,100401.47
2022-08-23T22:03:07.892Z,100406.66
2022-08-23T22:05:42.898Z,100396.03
2022-08-23T22:08:10.582Z,100397.97
2022-08-23T22:10:48.221Z,100408.59
2022-08-23T22:13:28.616Z,100407.47
2022-08-23T22:15:55.261Z,100411.53
2022-08-23T22:18:21.758Z,100408.78
2022-08-23T22:20:48.198Z,100404.97
2022-08-23T22:23:14.547Z,100414.72
2022-08-23T22:25:40.908Z,100416.34
2022-08-23T22:28:08.026Z,100416.31
2022-08-23T22:30:34.449Z,100407.59
2022-08-23T22:33:00.809Z,100413.03
2022-08-23T22:35:27.209Z,100409.75
2022-08-23T22:38:12.756Z,100412.19
2022-08-23T22:40:40.087Z,100414.63
2022-08-23T22:43:06.461Z,100388.97
2022-08-23T22:45:32.941Z,100398.47
2022-08-23T22:47:59.733Z,100408.56
2022-08-23T22:50:26.081Z,100414.53
2022-08-23T22:52:52.425Z,100416.16
2022-08-23T22:55:18.951Z,100417.25
2022-08-23T22:57:45.397Z,100416.94
2022-08-23T23:00:12.112Z,100418.56
2022-08-23T23:02:38.935Z,100402.34
2022-08-23T23:05:07.725Z,100422.00
2022-08-23T23:07:52.903Z,100414.88
2022-08-23T23:10:19.367Z,100412.94
2022-08-23T23:12:45.950Z,100404.47
2022-08-23T23:15:12.685Z,100411.50
2022-08-23T23:17:39.113Z,100415.25
2022-08-23T23:20:24.716Z,100411.69
2022-08-23T23:22:51.767Z,100415.69
2022-08-23T23:25:18.596Z,100407.47
2022-08-23T23:27:45.097Z,100412.06
2022-08-23T23:30:11.968Z,100414.47
2022-08-23T23:32:38.548Z,100412.75
2022-08-23T23:35:06.645Z,100408.13
2022-08-23T23:37:33.094Z,100411.34
2022-08-23T23:39:59.583Z,100412.91
2022-08-23T23:42:26.018Z,100409.06
2022-08-23T23:44:52.414Z,100409.53
2022-08-23T23:47:18.909Z,100414.41
2022-08-23T23:49:46.886Z,100416.81
2022-08-23T23:52:13.313Z,100406.72
2022-08-23T23:54:40.821Z,100411.03
2022-08-23T23:57:07.370Z,100410.72
2022-08-23T23:59:33.956Z,100409.06
